createdAt,value
2018-01-11T00:00:37.030Z,48.39
2018-01-11T00:01:37.599Z,48.68
2018-01-11T00:02:38.169Z,48.68
2018-01-11T00:03:38.755Z,48.68
2018-01-11T00:04:39.325Z,50.10
2018-01-11T00:05:39.896Z,51.52
2018-01-11T00:06:40.464Z,52.09
2018-01-11T00:07:41.034Z,52.47
2018-01-11T00:08:41.604Z,52.66
2018-01-11T00:09:42.176Z,52.95
2018-01-11T00:10:42.746Z,53.23
2018-01-11T00:11:43.317Z,51.81
2018-01-11T00:12:43.887Z,52.47
2018-01-11T00:13:44.458Z,52.28
2018-01-11T00:14:45.042Z,51.81
2018-01-11T00:15:45.611Z,51.14
2018-01-11T00:16:46.182Z,51.72
2018-01-11T00:17:46.753Z,52.56
2018-01-11T00:18:47.322Z,52.66
2018-01-11T00:19:47.894Z,51.72
2018-01-11T00:20:48.466Z,50.20
2018-01-11T00:21:49.034Z,49.43
2018-01-11T00:22:49.604Z,49.34
2018-01-11T00:23:50.175Z,49.82
2018-01-11T00:24:50.756Z,49.91
2018-01-11T00:25:51.368Z,50.20
2018-01-11T00:26:51.897Z,50.29
2018-01-11T00:27:52.470Z,49.34
2018-01-11T00:28:53.054Z,48.30
2018-01-11T00:29:53.623Z,47.73
2018-01-11T00:30:54.196Z,48.86
2018-01-11T00:31:54.765Z,50.67
2018-01-11T00:32:55.336Z,52.19
2018-01-11T00:33:55.906Z,53.14
2018-01-11T00:34:56.475Z,52.19
2018-01-11T00:35:57.046Z,52.56
2018-01-11T00:36:57.617Z,51.24
2018-01-11T00:37:58.188Z,51.43
2018-01-11T00:38:58.758Z,51.14
2018-01-11T00:39:59.329Z,48.58
2018-01-11T00:40:59.900Z,46.21
2018-01-11T00:42:00.472Z,45.92
2018-01-11T00:43:01.043Z,45.36
2018-01-11T00:44:01.612Z,45.45
2018-01-11T00:45:02.181Z,45.64
2018-01-11T00:46:02.766Z,45.07
2018-01-11T00:47:03.352Z,45.54
2018-01-11T00:48:03.920Z,44.79
2018-01-11T00:49:04.492Z,45.64
2018-01-11T00:50:05.060Z,46.49
2018-01-11T00:51:05.645Z,47.34
2018-01-11T00:52:06.214Z,48.77
2018-01-11T00:53:06.785Z,50.48
2018-01-11T00:54:07.356Z,51.90
2018-01-11T00:55:07.928Z,52.09
2018-01-11T00:56:08.496Z,53.70
2018-01-11T00:57:09.069Z,55.51
2018-01-11T00:58:09.639Z,55.89
2018-01-11T00:59:10.208Z,54.94
2018-01-11T01:00:10.777Z,53.61
2018-01-11T01:01:11.348Z,52.28
2018-01-11T01:02:11.919Z,52.56
2018-01-11T01:03:12.488Z,52.19
2018-01-11T01:04:13.060Z,52.00
2018-01-11T01:05:13.628Z,52.66
2018-01-11T01:06:14.197Z,51.90
2018-01-11T01:07:14.766Z,52.76
2018-01-11T01:08:15.337Z,52.28
2018-01-11T01:09:15.908Z,53.42
2018-01-11T01:10:16.479Z,54.56
2018-01-11T01:11:17.050Z,53.89
2018-01-11T01:12:17.627Z,53.42
2018-01-11T01:13:18.206Z,53.42
2018-01-11T01:14:18.777Z,53.14
2018-01-11T01:15:19.359Z,52.66
2018-01-11T01:16:19.929Z,52.47
2018-01-11T01:17:20.498Z,51.90
2018-01-11T01:18:21.069Z,52.00
2018-01-11T01:19:21.639Z,52.76
2018-01-11T01:20:22.213Z,51.90
2018-01-11T01:21:22.782Z,52.66
2018-01-11T01:22:23.353Z,53.04
2018-01-11T01:23:23.922Z,52.85
2018-01-11T01:24:24.495Z,54.18
2018-01-11T01:25:25.076Z,52.85
2018-01-11T01:26:25.658Z,52.37
2018-01-11T01:27:26.214Z,52.37
2018-01-11T01:28:26.785Z,52.47
2018-01-11T01:29:27.367Z,52.09
2018-01-11T01:30:27.953Z,52.37
2018-01-11T01:31:28.522Z,52.85
2018-01-11T01:32:29.091Z,54.27
2018-01-11T01:33:29.662Z,54.94
2018-01-11T01:34:30.234Z,55.60
2018-01-11T01:35:30.805Z,56.36
2018-01-11T01:36:31.377Z,55.04
2018-01-11T01:37:31.946Z,53.89
2018-01-11T01:38:32.516Z,52.47
2018-01-11T01:39:33.101Z,51.24
2018-01-11T01:40:33.670Z,50.95
2018-01-11T01:41:34.239Z,50.67
2018-01-11T01:42:34.808Z,50.86
2018-01-11T01:43:35.379Z,52.09
2018-01-11T01:44:35.961Z,52.28
2018-01-11T01:45:36.531Z,52.76
2018-01-11T01:46:37.101Z,53.89
2018-01-11T01:47:37.672Z,53.99
2018-01-11T01:48:38.247Z,53.04
2018-01-11T01:49:38.815Z,52.56
2018-01-11T01:50:39.398Z,52.37
2018-01-11T01:51:39.969Z,52.56
2018-01-11T01:52:40.553Z,53.04
2018-01-11T01:53:41.125Z,52.66
2018-01-11T01:54:41.711Z,53.23
2018-01-11T01:55:42.280Z,51.72
2018-01-11T01:56:42.850Z,50.01
2018-01-11T01:57:43.420Z,50.10
2018-01-11T01:58:43.989Z,49.24
2018-01-11T01:59:44.559Z,48.96
2018-01-11T02:00:45.130Z,48.86
2018-01-11T02:01:45.702Z,48.77
2018-01-11T02:02:46.270Z,47.34
2018-01-11T02:03:46.841Z,47.06
2018-01-11T02:04:47.411Z,47.06
2018-01-11T02:05:47.982Z,47.25
2018-01-11T02:06:48.564Z,47.82
2018-01-11T02:07:49.134Z,49.82
2018-01-11T02:08:49.717Z,49.82
2018-01-11T02:09:50.287Z,50.48
2018-01-11T02:10:50.856Z,50.20
2018-01-11T02:11:51.426Z,51.52
2018-01-11T02:12:51.997Z,51.81
2018-01-11T02:13:52.570Z,50.86
2018-01-11T02:14:53.139Z,50.95
2018-01-11T02:15:53.709Z,49.24
2018-01-11T02:16:54.280Z,48.01
2018-01-11T02:17:54.866Z,47.16
2018-01-11T02:18:55.437Z,46.88
2018-01-11T02:19:56.007Z,47.16
2018-01-11T02:20:56.577Z,47.06
2018-01-11T02:21:57.148Z,46.49
2018-01-11T02:22:57.720Z,45.17
2018-01-11T02:23:58.290Z,44.12
2018-01-11T02:24:58.859Z,43.84
2018-01-11T02:25:59.430Z,44.50
2018-01-11T02:27:00.000Z,44.98
2018-01-11T02:28:00.571Z,44.60
2018-01-11T02:29:01.142Z,44.50
2018-01-11T02:30:01.712Z,44.02
2018-01-11T02:31:02.282Z,44.31
2018-01-11T02:32:15.588Z,44.79
2018-01-11T02:33:16.159Z,43.65
2018-01-11T02:34:16.729Z,43.93
2018-01-11T02:35:17.301Z,43.74
2018-01-11T02:36:17.883Z,44.21
2018-01-11T02:37:18.455Z,44.02
2018-01-11T02:38:19.028Z,43.93
2018-01-11T02:39:19.598Z,43.65
2018-01-11T02:40:20.183Z,42.70
2018-01-11T02:41:20.769Z,41.46
2018-01-11T02:42:21.349Z,41.18
2018-01-11T02:43:21.911Z,39.83
2018-01-11T02:45:06.680Z,39.17
2018-01-11T02:46:07.262Z,38.12
2018-01-11T02:47:07.831Z,37.65
2018-01-11T02:48:08.400Z,37.48
2018-01-11T02:49:08.970Z,38.05
2018-01-11T02:50:09.539Z,38.05
2018-01-11T02:51:10.111Z,38.71
2018-01-11T02:52:10.682Z,39.00
2018-01-11T02:53:11.253Z,39.18
2018-01-11T02:54:11.822Z,39.09
2018-01-11T02:55:12.392Z,39.09
2018-01-11T02:56:12.964Z,39.18
2018-01-11T02:57:13.534Z,39.18
2018-01-11T02:58:14.106Z,39.85
2018-01-11T02:59:14.677Z,40.52
2018-01-11T03:00:15.246Z,40.52
2018-01-11T03:01:15.816Z,41.37
2018-01-11T03:02:16.386Z,41.75
2018-01-11T03:03:16.957Z,41.27
2018-01-11T03:04:17.528Z,40.69
2018-01-11T03:05:18.100Z,40.04
2018-01-11T03:06:18.670Z,40.14
2018-01-11T03:07:19.240Z,42.13
2018-01-11T03:08:19.809Z,42.41
2018-01-11T03:09:20.380Z,43.55
2018-01-11T03:10:20.952Z,43.46
2018-01-11T03:11:21.522Z,44.02
2018-01-11T03:12:22.091Z,43.82
2018-01-11T03:13:22.662Z,42.58
2018-01-11T03:14:23.231Z,40.31
2018-01-11T03:15:23.802Z,38.69
2018-01-11T03:16:24.374Z,38.79
2018-01-11T03:17:24.945Z,37.74
2018-01-11T03:18:25.515Z,36.61
2018-01-11T03:19:26.085Z,36.32
2018-01-11T03:20:26.655Z,36.42
2018-01-11T03:21:27.228Z,36.89
2018-01-11T03:22:27.797Z,36.70
2018-01-11T03:23:28.380Z,35.94
2018-01-11T03:24:28.938Z,35.57
2018-01-11T03:25:29.508Z,35.28
2018-01-11T03:26:30.081Z,35.38
2018-01-11T03:27:30.665Z,35.28
2018-01-11T03:28:31.235Z,36.04
2018-01-11T03:29:31.806Z,36.22
2018-01-11T03:30:32.377Z,36.70
2018-01-11T03:31:32.947Z,36.51
2018-01-11T03:32:33.516Z,35.18
2018-01-11T03:33:34.086Z,33.76
2018-01-11T03:34:34.658Z,33.19
2018-01-11T03:35:35.229Z,33.48
2018-01-11T03:36:35.800Z,33.67
2018-01-11T03:37:36.369Z,33.86
2018-01-11T03:38:36.938Z,34.61
2018-01-11T03:39:37.508Z,34.99
2018-01-11T03:40:38.078Z,34.59
2018-01-11T03:41:38.650Z,34.61
2018-01-11T03:42:39.220Z,35.55
2018-01-11T03:43:39.804Z,34.98
2018-01-11T03:44:40.376Z,35.28
2018-01-11T03:45:40.945Z,35.38
2018-01-11T03:46:41.514Z,35.47
2018-01-11T03:47:42.084Z,35.85
2018-01-11T03:48:42.654Z,36.59
2018-01-11T03:49:43.226Z,36.40
2018-01-11T03:50:43.794Z,35.74
2018-01-11T03:51:44.383Z,34.41
2018-01-11T03:52:44.963Z,33.37
2018-01-11T03:53:45.534Z,32.14
2018-01-11T03:54:46.116Z,31.47
2018-01-11T03:55:46.685Z,30.62
2018-01-11T03:56:47.260Z,30.82
2018-01-11T03:57:47.826Z,30.43
2018-01-11T03:58:48.398Z,30.43
2018-01-11T03:59:48.966Z,30.52
2018-01-11T04:00:49.534Z,30.43
2018-01-11T04:01:50.103Z,30.62
2018-01-11T04:02:50.673Z,30.99
2018-01-11T04:03:51.243Z,30.43
2018-01-11T04:04:51.813Z,30.24
2018-01-11T04:05:52.384Z,29.76
2018-01-11T04:06:52.954Z,29.78
2018-01-11T04:07:53.523Z,29.87
2018-01-11T04:08:54.094Z,29.87
2018-01-11T04:09:54.679Z,30.25
2018-01-11T04:10:55.249Z,31.10
2018-01-11T04:11:55.834Z,32.24
2018-01-11T04:12:56.404Z,32.91
2018-01-11T04:13:56.972Z,32.71
2018-01-11T04:14:57.542Z,32.34
2018-01-11T04:15:58.123Z,32.24
2018-01-11T04:16:58.697Z,31.37
2018-01-11T04:17:59.278Z,31.10
2018-01-11T04:18:59.849Z,30.33
2018-01-11T04:20:00.419Z,30.33
2018-01-11T04:21:01.002Z,29.49
2018-01-11T04:22:01.573Z,29.10
2018-01-11T04:23:02.145Z,28.81
2018-01-11T04:24:02.728Z,28.72
2018-01-11T04:25:03.297Z,28.45
2018-01-11T04:26:03.866Z,28.44
2018-01-11T04:27:04.435Z,28.34
2018-01-11T04:28:05.003Z,28.17
2018-01-11T04:29:05.573Z,28.55
2018-01-11T04:30:06.143Z,29.97
2018-01-11T04:31:06.712Z,31.39
2018-01-11T04:32:07.283Z,32.06
2018-01-11T04:33:07.855Z,32.91
2018-01-11T04:34:08.420Z,33.48
2018-01-11T04:35:08.989Z,33.48
2018-01-11T04:36:09.566Z,34.99
2018-01-11T04:37:10.130Z,35.09
2018-01-11T04:38:10.699Z,34.52
2018-01-11T04:39:11.270Z,34.23
2018-01-11T04:40:11.839Z,33.57
2018-01-11T04:41:12.408Z,33.38
2018-01-11T04:42:12.978Z,33.38
2018-01-11T04:43:13.547Z,32.42
2018-01-11T04:44:14.119Z,32.06
2018-01-11T04:45:14.689Z,31.77
2018-01-11T04:46:15.258Z,31.75
2018-01-11T04:47:15.828Z,30.91
2018-01-11T04:48:16.412Z,30.05
2018-01-11T04:49:16.981Z,29.29
2018-01-11T04:50:17.550Z,28.34
2018-01-11T04:51:18.122Z,27.11
2018-01-11T04:52:18.691Z,27.01
2018-01-11T04:53:19.259Z,26.92
2018-01-11T04:54:19.831Z,26.82
2018-01-11T04:55:20.400Z,26.54
2018-01-11T04:56:20.969Z,27.01
2018-01-11T04:57:21.539Z,27.40
2018-01-11T04:58:22.109Z,27.22
2018-01-11T04:59:22.685Z,27.31
2018-01-11T05:00:23.249Z,27.11
2018-01-11T05:01:23.818Z,27.12
2018-01-11T05:02:24.388Z,26.82
2018-01-11T05:03:24.970Z,25.68
2018-01-11T05:04:25.541Z,25.02
2018-01-11T05:05:26.169Z,24.46
2018-01-11T05:06:26.678Z,23.50
2018-01-11T05:07:27.249Z,22.85
2018-01-11T05:08:27.821Z,22.65
2018-01-11T05:09:28.403Z,22.65
2018-01-11T05:10:28.984Z,22.94
2018-01-11T05:11:29.554Z,23.50
2018-01-11T05:12:30.123Z,23.52
2018-01-11T05:13:30.693Z,23.80
2018-01-11T05:14:31.263Z,24.37
2018-01-11T05:15:31.834Z,24.37
2018-01-11T05:16:32.403Z,25.51
2018-01-11T05:17:32.986Z,26.36
2018-01-11T05:18:33.556Z,28.45
2018-01-11T05:19:34.125Z,29.59
2018-01-11T05:20:34.694Z,31.29
2018-01-11T05:21:35.280Z,32.43
2018-01-11T05:22:35.848Z,33.10
2018-01-11T05:23:36.418Z,33.10
2018-01-11T05:24:37.037Z,32.71
2018-01-11T05:25:37.560Z,32.62
2018-01-11T05:26:38.129Z,32.06
2018-01-11T05:27:38.699Z,30.44
2018-01-11T05:28:39.270Z,29.30
2018-01-11T05:29:39.841Z,29.11
2018-01-11T05:30:40.410Z,28.83
2018-01-11T05:31:40.980Z,28.74
2018-01-11T05:32:41.549Z,27.98
2018-01-11T05:33:42.118Z,27.12
2018-01-11T05:34:42.688Z,26.36
2018-01-11T05:35:43.271Z,25.70
2018-01-11T05:36:43.846Z,25.89
2018-01-11T05:37:44.409Z,26.17
2018-01-11T05:38:44.979Z,26.08
2018-01-11T05:39:45.551Z,26.08
2018-01-11T05:40:46.120Z,26.27
2018-01-11T05:41:46.689Z,26.36
2018-01-11T05:42:47.259Z,26.46
2018-01-11T05:43:47.829Z,27.03
2018-01-11T05:44:48.400Z,27.12
2018-01-11T05:45:48.971Z,26.46
2018-01-11T05:46:49.540Z,26.27
2018-01-11T05:47:50.107Z,24.47
2018-01-11T05:48:50.676Z,24.47
2018-01-11T05:49:51.245Z,24.75
2018-01-11T05:50:51.816Z,25.42
2018-01-11T05:51:52.389Z,25.13
2018-01-11T05:52:52.970Z,23.99
2018-01-11T05:53:53.553Z,23.99
2018-01-11T05:54:54.122Z,23.61
2018-01-11T05:55:54.694Z,23.90
2018-01-11T05:56:55.263Z,24.37
2018-01-11T05:57:55.834Z,24.28
2018-01-11T05:58:56.419Z,24.28
2018-01-11T05:59:56.988Z,24.37
2018-01-11T06:00:57.557Z,24.18
2018-01-11T06:01:58.127Z,24.75
2018-01-11T06:02:58.695Z,25.89
2018-01-11T06:03:59.266Z,25.98
2018-01-11T06:04:59.838Z,25.89
2018-01-11T06:06:00.409Z,25.89
2018-01-11T06:07:00.978Z,25.79
2018-01-11T06:08:01.547Z,24.75
2018-01-11T06:09:02.116Z,24.08
2018-01-11T06:10:02.691Z,22.95
2018-01-11T06:11:03.265Z,22.38
2018-01-11T06:12:03.828Z,22.19
2018-01-11T06:13:04.398Z,22.00
2018-01-11T06:14:04.968Z,21.43
2018-01-11T06:15:05.552Z,21.05
2018-01-11T06:16:06.122Z,20.39
2018-01-11T06:17:06.730Z,19.73
2018-01-11T06:18:07.263Z,20.20
2018-01-11T06:19:07.834Z,20.29
2018-01-11T06:20:08.403Z,20.77
2018-01-11T06:21:08.972Z,20.77
2018-01-11T06:22:09.541Z,21.91
2018-01-11T06:23:10.110Z,22.57
2018-01-11T06:24:10.682Z,23.04
2018-01-11T06:25:11.251Z,22.76
2018-01-11T06:26:11.822Z,22.47
2018-01-11T06:27:12.392Z,23.04
2018-01-11T06:28:12.964Z,23.71
2018-01-11T06:29:13.539Z,23.24
2018-01-11T06:30:14.115Z,22.76
2018-01-11T06:31:14.685Z,23.04
2018-01-11T06:32:15.257Z,23.43
2018-01-11T06:33:15.825Z,23.14
2018-01-11T06:34:16.396Z,22.66
2018-01-11T06:35:16.964Z,21.91
2018-01-11T06:36:17.533Z,21.91
2018-01-11T06:37:18.101Z,22.09
2018-01-11T06:38:18.671Z,22.28
2018-01-11T06:39:19.243Z,20.86
2018-01-11T06:40:19.812Z,20.96
2018-01-11T06:41:20.396Z,19.73
2018-01-11T06:42:20.966Z,20.29
2018-01-11T06:43:21.535Z,20.96
2018-01-11T06:44:22.103Z,21.43
2018-01-11T06:45:22.687Z,21.81
2018-01-11T06:46:23.256Z,20.57
2018-01-11T06:47:23.840Z,20.86
2018-01-11T06:48:24.412Z,22.09
2018-01-11T06:49:24.980Z,21.72
2018-01-11T06:50:25.549Z,21.72
2018-01-11T06:51:26.118Z,20.77
2018-01-11T06:52:26.688Z,20.29
2018-01-11T06:53:27.260Z,19.92
2018-01-11T06:54:27.828Z,20.39
2018-01-11T06:55:28.398Z,19.73
2018-01-11T06:56:28.967Z,19.63
2018-01-11T06:57:29.536Z,18.96
2018-01-11T06:58:30.105Z,18.59
2018-01-11T06:59:30.699Z,18.59
2018-01-11T07:00:31.246Z,18.21
2018-01-11T07:01:31.814Z,17.83
2018-01-11T07:02:32.384Z,17.54
2018-01-11T07:03:32.954Z,17.35
2018-01-11T07:04:33.524Z,16.78
2018-01-11T07:05:34.094Z,16.41
2018-01-11T07:06:34.665Z,16.31
2018-01-11T07:07:35.248Z,15.74
2018-01-11T07:08:35.819Z,15.36
2018-01-11T07:09:36.387Z,14.97
2018-01-11T07:10:36.997Z,15.07
2018-01-11T07:11:37.526Z,14.97
2018-01-11T07:12:38.095Z,14.40
2018-01-11T07:13:38.679Z,13.65
2018-01-11T07:14:39.248Z,14.13
2018-01-11T07:15:39.818Z,15.08
2018-01-11T07:16:40.389Z,15.08
2018-01-11T07:17:40.960Z,15.55
2018-01-11T07:18:41.531Z,16.12
2018-01-11T07:19:42.098Z,16.22
2018-01-11T07:20:42.667Z,16.50
2018-01-11T07:21:43.236Z,16.88
2018-01-11T07:22:43.805Z,16.88
2018-01-11T07:23:44.377Z,16.88
2018-01-11T07:24:44.946Z,16.78
2018-01-11T07:25:45.516Z,16.22
2018-01-11T07:26:46.101Z,16.31
2018-01-11T07:27:46.685Z,16.12
2018-01-11T07:28:47.254Z,15.84
2018-01-11T07:29:47.824Z,16.22
2018-01-11T07:30:48.396Z,16.12
2018-01-11T07:31:48.963Z,16.12
2018-01-11T07:32:49.532Z,17.64
2018-01-11T07:33:50.103Z,16.97
2018-01-11T07:34:50.674Z,16.88
2018-01-11T07:35:51.244Z,16.50
2018-01-11T07:36:51.812Z,17.73
2018-01-11T07:37:52.380Z,18.02
2018-01-11T07:38:52.953Z,18.11
2018-01-11T07:39:53.534Z,18.11
2018-01-11T07:40:54.103Z,17.64
2018-01-11T07:41:54.676Z,18.11
2018-01-11T07:42:55.247Z,19.06
2018-01-11T07:43:55.816Z,19.63
2018-01-11T07:44:56.391Z,19.73
2018-01-11T07:45:56.958Z,18.87
2018-01-11T07:46:57.529Z,17.73
2018-01-11T07:47:58.104Z,16.78
2018-01-11T07:48:58.669Z,16.30
2018-01-11T07:49:59.240Z,15.55
2018-01-11T07:50:59.810Z,14.69
2018-01-11T07:52:00.381Z,14.13
2018-01-11T07:53:00.954Z,13.84
2018-01-11T07:54:01.525Z,13.56
2018-01-11T07:55:02.094Z,13.27
2018-01-11T07:56:02.665Z,13.46
2018-01-11T07:57:03.234Z,13.36
2018-01-11T07:58:03.807Z,12.70
2018-01-11T07:59:04.376Z,12.71
2018-01-11T08:00:04.946Z,12.80
2018-01-11T08:01:05.516Z,13.09
2018-01-11T08:02:06.087Z,13.56
2018-01-11T08:03:06.658Z,12.99
2018-01-11T08:04:07.242Z,13.37
2018-01-11T08:05:07.811Z,12.70
2018-01-11T08:06:08.383Z,13.18
2018-01-11T08:07:08.955Z,13.18
2018-01-11T08:08:09.525Z,12.71
2018-01-11T08:09:10.097Z,13.56
2018-01-11T08:10:10.667Z,13.65
2018-01-11T08:11:11.252Z,13.94
2018-01-11T08:12:11.824Z,14.22
2018-01-11T08:13:12.410Z,14.51
2018-01-11T08:14:12.981Z,14.70
2018-01-11T08:15:13.566Z,14.32
2018-01-11T08:16:14.137Z,13.94
2018-01-11T08:17:14.709Z,13.84
2018-01-11T08:18:15.280Z,13.37
2018-01-11T08:19:15.852Z,13.46
2018-01-11T08:20:16.473Z,13.18
2018-01-11T08:21:16.992Z,12.99
2018-01-11T08:22:17.563Z,13.46
2018-01-11T08:23:18.134Z,13.75
2018-01-11T08:24:18.705Z,13.28
2018-01-11T08:25:19.274Z,13.09
2018-01-11T08:26:19.844Z,12.80
2018-01-11T08:27:20.417Z,13.46
2018-01-11T08:28:20.986Z,13.75
2018-01-11T08:29:21.558Z,13.28
2018-01-11T08:30:22.144Z,13.56
2018-01-11T08:31:22.715Z,12.52
2018-01-11T08:32:23.284Z,12.52
2018-01-11T08:33:23.857Z,12.14
2018-01-11T08:34:24.426Z,12.04
2018-01-11T08:35:24.998Z,12.14
2018-01-11T08:36:25.567Z,11.85
2018-01-11T08:37:26.138Z,11.94
2018-01-11T08:38:26.710Z,12.23
2018-01-11T08:39:27.279Z,11.76
2018-01-11T08:40:27.851Z,13.37
2018-01-11T08:41:28.435Z,14.03
2018-01-11T08:42:29.007Z,13.94
2018-01-11T08:43:29.590Z,14.03
2018-01-11T08:44:30.160Z,14.13
2018-01-11T08:45:30.731Z,14.13
2018-01-11T08:46:31.316Z,13.94
2018-01-11T08:47:31.886Z,13.84
2018-01-11T08:48:32.457Z,13.65
2018-01-11T08:49:33.029Z,13.65
2018-01-11T08:50:33.601Z,13.65
2018-01-11T08:51:34.171Z,14.04
2018-01-11T08:52:34.744Z,14.14
2018-01-11T08:53:35.340Z,15.18
2018-01-11T08:54:35.888Z,15.66
2018-01-11T08:55:36.465Z,16.03
2018-01-11T08:56:37.045Z,16.13
2018-01-11T08:57:37.617Z,17.08
2018-01-11T08:58:38.190Z,17.17
2018-01-11T08:59:38.776Z,17.36
2018-01-11T09:00:39.348Z,17.46
2018-01-11T09:01:39.920Z,17.83
2018-01-11T09:02:40.492Z,18.69
2018-01-11T09:03:41.065Z,18.60
2018-01-11T09:04:41.636Z,18.02
2018-01-11T09:05:42.209Z,18.12
2018-01-11T09:06:42.780Z,17.74
2018-01-11T09:07:43.354Z,18.12
2018-01-11T09:08:43.927Z,18.22
2018-01-11T09:09:44.499Z,18.60
2018-01-11T09:10:45.086Z,18.98
2018-01-11T09:11:45.660Z,19.26
2018-01-11T09:12:46.235Z,19.45
2018-01-11T09:13:46.808Z,19.92
2018-01-11T09:14:47.383Z,20.97
2018-01-11T09:15:47.957Z,21.82
2018-01-11T09:16:48.529Z,22.11
2018-01-11T09:17:49.103Z,22.01
2018-01-11T09:18:49.677Z,23.34
2018-01-11T09:19:50.249Z,24.29
2018-01-11T09:20:50.822Z,26.28
2018-01-11T09:21:51.395Z,26.57
2018-01-11T09:22:51.968Z,26.47
2018-01-11T09:23:52.555Z,28.18
2018-01-11T09:24:53.128Z,28.37
2018-01-11T09:25:53.702Z,28.19
2018-01-11T09:26:54.275Z,29.05
2018-01-11T09:27:54.848Z,30.66
2018-01-11T09:28:55.424Z,31.71
2018-01-11T09:29:56.010Z,31.99
2018-01-11T09:30:56.583Z,32.09
2018-01-11T09:31:57.157Z,32.75
2018-01-11T09:32:57.730Z,33.04
2018-01-11T09:33:58.304Z,33.13
2018-01-11T09:34:58.879Z,33.70
2018-01-11T09:35:59.451Z,33.32
2018-01-11T09:37:00.036Z,34.94
2018-01-11T09:38:00.612Z,36.17
2018-01-11T09:39:01.188Z,37.59
2018-01-11T09:40:01.761Z,38.26
2018-01-11T09:41:02.335Z,39.49
2018-01-11T09:42:02.933Z,41.58
2018-01-11T09:43:03.483Z,40.92
2018-01-11T09:44:04.059Z,41.01
2018-01-11T09:45:04.640Z,41.11
2018-01-11T09:46:05.220Z,40.63
2018-01-11T09:47:05.794Z,34.19
2018-01-11T09:48:06.366Z,37.71
2018-01-11T09:49:06.942Z,37.33
2018-01-11T09:50:07.515Z,36.94
2018-01-11T09:51:08.089Z,30.96
2018-01-11T09:52:08.666Z,36.76
2018-01-11T09:53:09.237Z,41.89
2018-01-11T09:54:09.831Z,41.79
2018-01-11T09:55:10.400Z,44.45
2018-01-11T09:56:10.989Z,44.73
2018-01-11T09:57:11.562Z,44.93
2018-01-11T09:58:12.136Z,46.16
2018-01-11T09:59:12.710Z,47.20
2018-01-11T10:00:13.285Z,48.63
2018-01-11T10:01:13.858Z,48.72
2018-01-11T10:02:14.432Z,49.68
2018-01-11T10:03:15.022Z,49.49
2018-01-11T10:04:15.596Z,50.43
2018-01-11T10:05:16.168Z,50.05
2018-01-11T10:06:16.742Z,51.48
2018-01-11T10:07:17.318Z,54.33
2018-01-11T10:08:17.892Z,54.71
2018-01-11T10:09:18.466Z,54.90
2018-01-11T10:10:19.042Z,54.05
2018-01-11T10:11:19.615Z,54.33
2018-01-11T10:12:20.187Z,53.57
2018-01-11T10:13:20.775Z,52.43
2018-01-11T10:14:21.360Z,52.24
2018-01-11T10:15:21.936Z,53.38
2018-01-11T10:16:22.507Z,54.24
2018-01-11T10:17:23.082Z,54.61
2018-01-11T10:18:23.654Z,55.94
2018-01-11T10:19:24.242Z,54.80
2018-01-11T10:20:24.816Z,54.99
2018-01-11T10:21:25.393Z,54.24
2018-01-11T10:22:25.966Z,54.33
2018-01-11T10:23:26.539Z,54.90
2018-01-11T10:24:27.114Z,55.57
2018-01-11T10:25:27.686Z,56.13
2018-01-11T10:26:28.261Z,56.89
2018-01-11T10:27:28.837Z,55.94
2018-01-11T10:28:29.425Z,56.23
2018-01-11T10:29:29.998Z,54.71
2018-01-11T10:30:30.573Z,54.61
2018-01-11T10:31:31.149Z,54.61
2018-01-11T10:32:31.722Z,54.71
2018-01-11T10:33:32.297Z,55.76
2018-01-11T10:34:32.872Z,55.57
2018-01-11T10:35:33.445Z,54.14
2018-01-11T10:36:34.020Z,54.52
2018-01-11T10:37:34.595Z,53.85
2018-01-11T10:38:35.168Z,54.05
2018-01-11T10:39:35.741Z,52.72
2018-01-11T10:40:36.317Z,52.33
2018-01-11T10:41:36.890Z,51.67
2018-01-11T10:42:37.464Z,52.05
2018-01-11T10:43:38.053Z,50.91
2018-01-11T10:44:38.629Z,52.08
2018-01-11T10:45:39.203Z,52.72
2018-01-11T10:46:39.776Z,52.08
2018-01-11T10:47:40.352Z,51.12
2018-01-11T10:48:40.926Z,50.43
2018-01-11T10:49:41.499Z,48.08
2018-01-11T10:50:42.086Z,48.06
2018-01-11T10:51:42.663Z,47.77
2018-01-11T10:52:43.235Z,48.91
2018-01-11T10:53:43.810Z,49.20
2018-01-11T10:54:44.382Z,48.37
2018-01-11T10:55:44.957Z,48.63
2018-01-11T10:56:45.532Z,48.91
2018-01-11T10:57:46.106Z,48.35
2018-01-11T10:58:46.680Z,48.37
2018-01-11T10:59:47.261Z,48.66
2018-01-11T11:00:47.829Z,50.43
2018-01-11T11:01:48.405Z,49.51
2018-01-11T11:02:48.979Z,50.05
2018-01-11T11:03:49.553Z,49.32
2018-01-11T11:04:50.128Z,48.82
2018-01-11T11:05:50.703Z,50.62
2018-01-11T11:06:51.276Z,49.89
2018-01-11T11:07:51.851Z,48.27
2018-01-11T11:08:52.426Z,51.98
2018-01-11T11:09:53.000Z,52.36
2018-01-11T11:10:53.574Z,52.17
2018-01-11T11:11:54.162Z,52.45
2018-01-11T11:12:54.739Z,52.17
2018-01-11T11:13:55.312Z,51.89
2018-01-11T11:14:55.887Z,53.41
2018-01-11T11:15:56.463Z,54.07
2018-01-11T11:16:57.054Z,54.93
2018-01-11T11:17:57.640Z,58.25
2018-01-11T11:18:58.213Z,59.58
2018-01-11T11:19:58.788Z,59.49
2018-01-11T11:20:59.365Z,59.68
2018-01-11T11:21:59.939Z,59.39
2018-01-11T11:23:00.513Z,60.35
2018-01-11T11:24:01.089Z,61.77
2018-01-11T11:25:01.662Z,61.48
2018-01-11T11:26:02.237Z,61.77
2018-01-11T11:27:02.818Z,61.29
2018-01-11T11:28:03.387Z,61.10
2018-01-11T11:29:03.963Z,61.01
2018-01-11T11:30:04.538Z,61.58
2018-01-11T11:31:05.112Z,61.87
2018-01-11T11:32:05.687Z,63.76
2018-01-11T11:33:06.263Z,64.72
2018-01-11T11:34:06.836Z,68.04
2018-01-11T11:35:07.413Z,67.00
2018-01-11T11:36:08.000Z,68.33
2018-01-11T11:37:08.574Z,67.19
2018-01-11T11:38:09.150Z,68.13
2018-01-11T11:39:09.722Z,68.04
2018-01-11T11:40:10.298Z,68.07
2018-01-11T11:41:10.870Z,67.98
2018-01-11T11:42:11.444Z,67.88
2018-01-11T11:43:12.020Z,67.98
2018-01-11T11:44:12.595Z,68.17
2018-01-11T11:45:13.169Z,69.21
2018-01-11T11:46:13.745Z,69.41
2018-01-11T11:47:14.318Z,69.98
2018-01-11T11:48:14.892Z,71.94
2018-01-11T11:49:15.468Z,71.12
2018-01-11T11:50:16.043Z,71.02
2018-01-11T11:51:16.617Z,70.54
2018-01-11T11:52:17.190Z,71.12
2018-01-11T11:53:17.764Z,71.31
2018-01-11T11:54:18.341Z,71.50
2018-01-11T11:55:18.913Z,70.45
2018-01-11T11:56:19.488Z,71.02
2018-01-11T11:57:20.065Z,70.07
2018-01-11T11:58:20.654Z,70.54
2018-01-11T11:59:21.227Z,70.54
2018-01-11T12:00:21.838Z,70.64
2018-01-11T12:01:22.392Z,72.16
2018-01-11T12:02:22.969Z,73.59
2018-01-11T12:03:23.557Z,74.26
2018-01-11T12:04:24.131Z,73.49
2018-01-11T12:05:24.707Z,73.11
2018-01-11T12:06:25.283Z,73.02
2018-01-11T12:07:25.858Z,70.45
2018-01-11T12:08:26.433Z,71.31
2018-01-11T12:09:27.010Z,73.49
2018-01-11T12:10:27.584Z,72.92
2018-01-11T12:11:28.158Z,71.97
2018-01-11T12:12:28.735Z,73.02
2018-01-11T12:13:29.310Z,73.49
2018-01-11T12:14:29.885Z,73.21
2018-01-11T12:15:30.462Z,72.45
2018-01-11T12:16:31.054Z,72.74
2018-01-11T12:17:31.623Z,72.07
2018-01-11T12:18:32.198Z,70.83
2018-01-11T12:19:32.776Z,72.55
2018-01-11T12:20:33.350Z,72.45
2018-01-11T12:21:33.924Z,71.50
2018-01-11T12:22:34.501Z,72.26
2018-01-11T12:23:35.076Z,71.12
2018-01-11T12:24:35.651Z,70.10
2018-01-11T12:25:36.227Z,71.31
2018-01-11T12:26:36.817Z,74.35
2018-01-11T12:27:37.392Z,74.54
2018-01-11T12:28:37.967Z,72.74
2018-01-11T12:29:38.544Z,72.16
2018-01-11T12:30:39.118Z,72.26
2018-01-11T12:31:39.692Z,71.88
2018-01-11T12:32:40.269Z,71.31
2018-01-11T12:33:40.844Z,72.07
2018-01-11T12:34:41.418Z,71.50
2018-01-11T12:35:41.994Z,71.59
2018-01-11T12:36:42.568Z,71.22
2018-01-11T12:37:43.142Z,70.74
2018-01-11T12:38:43.719Z,71.41
2018-01-11T12:39:44.293Z,72.16
2018-01-11T12:40:44.871Z,72.83
2018-01-11T12:41:45.455Z,72.55
2018-01-11T12:42:46.032Z,73.88
2018-01-11T12:43:46.606Z,72.86
2018-01-11T12:44:47.181Z,73.44
2018-01-11T12:45:47.758Z,74.20
2018-01-11T12:46:48.332Z,73.15
2018-01-11T12:47:48.907Z,71.82
2018-01-11T12:48:49.502Z,75.15
2018-01-11T12:49:50.068Z,76.48
2018-01-11T12:50:50.645Z,80.95
2018-01-11T12:51:51.220Z,78.48
2018-01-11T12:52:51.795Z,78.10
2018-01-11T12:53:52.372Z,78.96
2018-01-11T12:54:52.946Z,78.29
2018-01-11T12:55:53.521Z,76.96
2018-01-11T12:56:54.096Z,77.34
2018-01-11T12:57:54.685Z,75.59
2018-01-11T12:58:55.259Z,75.11
2018-01-11T12:59:55.835Z,75.34
2018-01-11T13:00:56.411Z,73.40